Eddy, Minnesota
Current Conditions -  °F | °C
As of 9:54 PM on Wednesday 22 Oct 2014 (Local Time) from KFSE Reporting Station
Moderate Rain Moderate Rain  
Wind Chill: 52°   Ceiling: 500
Heat Index: 52°   Visibility: 3mi
Dew Point: 52°   Wind: 9mph
Humidity: 100%   Direction: 200°SSW
Pressure: 29.9"   Gusts: NA
Location:  47.7926°N, 95.3062°W
Report Text: KFSE 230254Z AUTO 20008KT 3SM RA OVC005 11/11 A2990 RMK AO2 P0007
Loading
Personal Weather Stations






























Interactive Weather Map
Tropical Storm Tracking
New forecast layout! Learn more

10-Day Weather Forecast

Advertisements
Track Severe Weather on mobile